Time;durP1;ratioP1;P1;durP2;ratioP2;P2;SDS_P1;SDS_P2;PMS_P1;PMS_P2;Temp;Humidity;BMP_temperature;BMP_pressure;BME280_temperature;BME280_humidity;BME280_pressure;Samples;Min_cycle;Max_cycle;Signal;HPM_P1;HPM_P2
2021/10/16 00:00:07;;;;;;;;;;;;;;;21.23;55.55;100340.16;2084017;28;1040;-57
2021/10/16 00:01:10;;;;;;;;;;;;;;;21.21;56.41;100336.66;2084018;28;765;-56
2021/10/16 00:02:10;;;;;;;;;;;;;;;21.20;55.41;100345.72;2083986;28;973;-57
2021/10/16 00:03:11;;;;;;;;;;;;;;;21.20;54.79;100351.09;2083948;28;808;-56
2021/10/16 00:04:11;;;;;;;;;;;;;;;;;;2083918;28;1416;-57
2021/10/16 00:05:11;;;;;;;;;;;;;;;21.20;55.37;100346.56;2084038;28;953;-56
2021/10/16 00:06:11;;;;;;;;;;;;;;;21.22;56.41;100358.16;2083834;28;985;-57
2021/10/16 00:07:11;;;;;;;;;;;;;;;21.20;55.93;100351.94;2084015;28;768;-57
2021/10/16 00:08:11;;;;;;;;;;;;;;;21.19;55.65;100355.59;2084010;28;749;-57
2021/10/16 00:09:11;;;;;;;;;;;;;;;21.22;55.10;100352.75;2083594;28;1125;-56
2021/10/16 00:10:12;;;;;;;;;;;;;;;21.17;55.47;100347.59;2083968;28;805;-57
2021/10/16 00:11:12;;;;;;;;;;;;;;;21.17;55.85;100347.59;2083989;28;843;-56
2021/10/16 00:12:12;;;;;;;;;;;;;;;21.20;55.48;100348.41;2083540;28;993;-57
2021/10/16 00:13:13;;;;;;;;;;;;;;;21.26;54.75;100350.78;2083981;28;1358;-56
2021/10/16 00:14:13;;;;;;;;;;;;;;;21.17;54.98;100347.59;2083939;28;748;-58
2021/10/16 00:15:13;;;;;;;;;;;;;;;;;;2084032;28;713;-57
2021/10/16 00:16:13;;;;;;;;;;;;;;;21.19;55.70;100350.19;2083853;28;1005;-57
2021/10/16 00:17:13;;;;;;;;;;;;;;;;;;2083722;28;823;-57
2021/10/16 00:18:14;;;;;;;;;;;;;;;21.15;55.95;100353.97;2083842;28;990;-57
2021/10/16 00:19:14;;;;;;;;;;;;;;;21.16;55.49;100353.03;2083798;28;1985;-57
2021/10/16 00:20:14;;;;;;;;;;;;;;;21.18;56.03;100362.81;2083860;28;1060;-57
2021/10/16 00:21:14;;;;;;;;;;;;;;;21.14;55.57;100358.50;2083815;28;1037;-56
2021/10/16 00:22:15;;;;;;;;;;;;;;;21.18;55.63;100359.22;2083812;28;777;-57
2021/10/16 00:23:15;;;;;;;;;;;;;;;21.20;55.03;100359.19;2083806;28;796;-57
2021/10/16 00:24:15;;;;;;;;;;;;;;;21.14;55.49;100365.69;2083815;28;1042;-56
2021/10/16 00:25:15;;;;;;;;;;;;;;;21.15;55.42;100360.25;2083814;28;1036;-59
2021/10/16 00:26:15;;;;;;;;;;;;;;;21.15;55.60;100360.25;2083764;28;1032;-57
2021/10/16 00:27:16;;;;;;;;;;;;;;;21.20;55.34;100361.88;2083756;28;882;-57
2021/10/16 00:28:16;;;;;;;;;;;;;;;21.20;55.04;100359.19;2083782;28;977;-57
2021/10/16 00:29:16;;;;;;;;;;;;;;;21.18;55.35;100365.50;2083796;28;772;-56
2021/10/16 00:30:16;;;;;;;;;;;;;;;21.17;54.34;100358.38;2083510;28;887;-57
2021/10/16 00:31:16;;;;;;;;;;;;;;;21.13;56.33;100362.13;2083816;28;1106;-56
2021/10/16 00:32:17;;;;;;;;;;;;;;;21.11;56.01;100358.63;2083786;28;981;-57
2021/10/16 00:33:17;;;;;;;;;;;;;;;21.13;56.22;100361.25;2083582;28;800;-57
2021/10/16 00:34:17;;;;;;;;;;;;;;;21.14;55.07;100358.50;2083734;28;1053;-56
2021/10/16 00:35:18;;;;;;;;;;;;;;;21.11;55.60;100360.44;2083712;28;775;-57
2021/10/16 00:36:18;;;;;;;;;;;;;;;21.12;55.47;100357.69;2083765;28;776;-56
2021/10/16 00:37:18;;;;;;;;;;;;;;;21.11;56.04;100358.63;2083680;28;1182;-57
2021/10/16 00:38:18;;;;;;;;;;;;;;;21.15;55.25;100357.56;2083601;28;998;-57
2021/10/16 00:39:18;;;;;;;;;;;;;;;21.10;55.17;100354.19;2083558;28;1886;-57
2021/10/16 00:40:18;;;;;;;;;;;;;;;21.10;56.21;100364.97;2083746;28;840;-57
2021/10/16 00:41:19;;;;;;;;;;;;;;;21.09;56.23;100363.22;2083552;28;855;-57
2021/10/16 00:42:19;;;;;;;;;;;;;;;21.09;56.04;100352.44;2083654;28;894;-56
2021/10/16 00:43:19;;;;;;;;;;;;;;;21.09;55.92;100356.94;2083651;28;801;-57
2021/10/16 00:44:22;;;;;;;;;;;;;;;21.06;55.15;100360.63;2083552;28;768;-56
2021/10/16 00:45:23;;;;;;;;;;;;;;;21.11;55.23;100358.63;2083651;28;846;-58
2021/10/16 00:46:23;;;;;;;;;;;;;;;21.11;55.15;100358.63;2083682;28;1091;-57
2021/10/16 00:47:23;;;;;;;;;;;;;;;21.13;55.46;100358.53;2083323;28;796;-56
2021/10/16 00:48:23;;;;;;;;;;;;;;;21.12;56.00;100362.19;2083624;28;863;-58
2021/10/16 00:49:23;;;;;;;;;;;;;;;21.11;56.13;100358.63;2083610;28;1040;-57
2021/10/16 00:50:24;;;;;;;;;;;;;;;21.08;55.95;100352.47;2083612;28;1021;-57
2021/10/16 00:51:24;;;;;;;;;;;;;;;21.09;55.23;100355.13;2083618;28;791;-57
2021/10/16 00:52:24;;;;;;;;;;;;;;;21.11;54.51;100353.25;2083480;28;954;-57
2021/10/16 00:53:25;;;;;;;;;;;;;;;21.11;55.16;100355.94;2083606;28;768;-57
2021/10/16 00:54:25;;;;;;;;;;;;;;;21.09;56.01;100354.22;2083543;28;1024;-57
2021/10/16 00:55:26;;;;;;;;;;;;;;;21.12;54.85;100354.09;2074703;28;962;-56
2021/10/16 00:56:26;;;;;;;;;;;;;;;21.10;55.82;100354.19;2074864;28;982;-57
2021/10/16 00:57:26;;;;;;;;;;;;;;;21.07;55.86;100342.66;2074804;28;855;-57
2021/10/16 00:58:27;;;;;;;;;;;;;;;21.07;55.07;100345.34;2074812;28;843;-57
2021/10/16 00:59:29;;;;;;;;;;;;;;;21.08;55.80;100352.47;2083479;28;1975;-57
2021/10/16 01:00:29;;;;;;;;;;;;;;;21.10;55.93;100351.50;2074438;28;1256;-57
2021/10/16 01:01:29;;;;;;;;;;;;;;;21.07;55.45;100350.72;2074842;28;785;-57
2021/10/16 01:02:30;;;;;;;;;;;;;;;21.09;55.41;100348.84;2083480;28;886;-57
2021/10/16 01:03:31;;;;;;;;;;;;;;;21.06;56.23;100348.97;2083560;28;1045;-56
2021/10/16 01:04:31;;;;;;;;;;;;;;;21.10;54.56;100345.22;2083419;28;815;-57
2021/10/16 01:05:33;;;;;;;;;;;;;;;21.10;55.29;100348.78;2074245;28;1431;-57
2021/10/16 01:06:35;;;;;;;;;;;;;;;21.06;55.97;100343.59;2075018;28;796;-57
2021/10/16 01:07:36;;;;;;;;;;;;;;;21.07;55.43;100346.25;2083471;28;953;-57
2021/10/16 01:08:37;;;;;;;;;;;;;;;21.03;56.07;100344.63;2083328;28;867;-56
2021/10/16 01:09:37;;;;;;;;;;;;;;;21.08;55.83;100341.72;2083372;28;1070;-58
2021/10/16 01:10:37;;;;;;;;;;;;;;;21.04;55.85;100340.97;2083304;28;1287;-57
2021/10/16 01:11:39;;;;;;;;;;;;;;;21.07;55.19;100343.53;2083479;28;992;-57
2021/10/16 01:12:40;;;;;;;;;;;;;;;21.07;56.16;100351.63;2083482;28;1179;-57
2021/10/16 01:13:41;;;;;;;;;;;;;;;21.04;55.98;100351.75;2083125;28;858;-57
2021/10/16 01:14:43;;;;;;;;;;;;;;;21.07;55.49;100345.34;2083456;28;1041;-57
2021/10/16 01:15:45;;;;;;;;;;;;;;;21.06;55.78;100349.88;2083445;28;791;-57
2021/10/16 01:16:46;;;;;;;;;;;;;;;21.09;55.94;100351.53;2083449;28;772;-57
2021/10/16 01:17:50;;;;;;;;;;;;;;;21.06;55.96;100355.25;2083424;28;870;-57
2021/10/16 01:18:50;;;;;;;;;;;;;;;21.08;56.38;100349.78;2083197;28;1963;-57
2021/10/16 01:20:07;;;;;;;;;;;;;;;21.07;55.22;100356.13;2082750;28;954;-58
2021/10/16 01:21:10;;;;;;;;;;;;;;;21.03;55.68;100344.63;2083003;28;788;-57
2021/10/16 01:22:11;;;;;;;;;;;;;;;21.06;55.66;100344.47;2083286;28;807;-57
2021/10/16 01:23:11;;;;;;;;;;;;;;;21.05;55.73;100353.50;2083384;28;1045;-57
2021/10/16 01:24:12;;;;;;;;;;;;;;;21.02;56.71;100346.41;2083214;28;1017;-57
2021/10/16 01:25:14;;;;;;;;;;;;;;;21.01;56.11;100347.34;2083361;28;788;-57
2021/10/16 01:26:14;;;;;;;;;;;;;;;21.02;56.36;100342.88;2083261;28;874;-57
2021/10/16 01:27:15;;;;;;;;;;;;;;;21.02;56.44;100353.63;2083358;28;946;-57
2021/10/16 01:28:15;;;;;;;;;;;;;;;21.02;55.54;100349.09;2083380;28;768;-57
2021/10/16 01:29:23;;;;;;;;;;;;;;;21.05;56.82;100341.84;2083351;28;1116;-57
2021/10/16 01:30:24;;;;;;;;;;;;;;;21.02;56.19;100345.56;2083284;28;1283;-57
2021/10/16 01:31:25;;;;;;;;;;;;;;;21.06;56.51;100344.47;2083336;28;784;-57
2021/10/16 01:32:25;;;;;;;;;;;;;;;21.01;56.60;100341.13;2083224;28;978;-57
2021/10/16 01:33:29;;;;;;;;;;;;;;;21.01;55.92;100347.34;2083304;28;977;-58
2021/10/16 01:34:29;;;;;;;;;;;;;;;21.02;56.00;100345.56;2083263;28;905;-57
2021/10/16 01:35:30;;;;;;;;;;;;;;;21.01;56.35;100350.06;2083333;28;1171;-57
2021/10/16 01:36:40;;;;;;;;;;;;;;;21.02;55.74;100348.25;2083279;28;847;-57
2021/10/16 01:37:41;;;;;;;;;;;;;;;21.04;55.65;100349.06;2075076;28;981;-57
2021/10/16 01:38:41;;;;;;;;;;;;;;;21.00;55.83;100342.91;2075124;28;787;-57
2021/10/16 01:39:41;;;;;;;;;;;;;;;20.98;56.75;100346.63;2075061;28;1898;-57
2021/10/16 01:40:41;;;;;;;;;;;;;;;20.99;55.73;100349.25;2075110;28;756;-57
2021/10/16 01:41:43;;;;;;;;;;;;;;;20.99;56.45;100351.06;2075131;28;860;-57
2021/10/16 01:42:43;;;;;;;;;;;;;;;20.99;55.51;100345.69;2074868;28;890;-57
2021/10/16 01:43:44;;;;;;;;;;;;;;;20.98;56.70;100354.69;2075117;28;815;-57
2021/10/16 01:44:44;;;;;;;;;;;;;;;21.00;56.02;100356.38;2074982;28;1142;-57
2021/10/16 01:45:44;;;;;;;;;;;;;;;21.01;56.15;100349.19;2074820;28;776;-58
2021/10/16 01:46:44;;;;;;;;;;;;;;;21.03;55.62;100358.06;2075073;28;1017;-57
2021/10/16 01:47:49;;;;;;;;;;;;;;;21.03;56.26;100350.84;2075106;28;964;-57
2021/10/16 01:48:49;;;;;;;;;;;;;;;20.99;56.00;100354.63;2075081;28;1086;-57
2021/10/16 01:49:49;;;;;;;;;;;;;;;21.00;56.25;100361.75;2075038;28;974;-57
2021/10/16 01:50:50;;;;;;;;;;;;;;;21.00;56.61;100358.22;2075050;28;831;-58
2021/10/16 01:51:53;;;;;;;;;;;;;;;21.02;56.31;100353.63;2075085;28;843;-57
2021/10/16 01:52:53;;;;;;;;;;;;;;;21.02;56.25;100354.50;2075074;28;962;-57
2021/10/16 01:53:53;;;;;;;;;;;;;;;21.01;55.76;100347.34;2075018;28;764;-57
2021/10/16 01:54:53;;;;;;;;;;;;;;;20.99;55.96;100343.00;2074979;28;945;-57
2021/10/16 01:55:53;;;;;;;;;;;;;;;20.99;56.38;100343.00;2074877;28;895;-57
2021/10/16 01:56:54;;;;;;;;;;;;;;;20.99;56.18;100349.25;2074865;28;1095;-57
2021/10/16 01:58:02;;;;;;;;;;;;;;;21.00;55.90;100345.59;2075054;28;898;-57
2021/10/16 01:59:14;;;;;;;;;;;;;;;21.01;55.67;100338.41;2074803;28;1955;-57
2021/10/16 02:00:15;;;;;;;;;;;;;;;20.98;56.32;100341.25;2066332;28;717;-57
2021/10/16 02:01:15;;;;;;;;;;;;;;;20.98;56.10;100343.94;2066326;28;815;-58
2021/10/16 02:02:15;;;;;;;;;;;;;;;20.98;56.53;100346.63;2074849;28;903;-57
2021/10/16 02:03:15;;;;;;;;;;;;;;;20.99;56.23;100341.16;2074991;28;1014;-58
2021/10/16 02:04:16;;;;;;;;;;;;;;;20.98;56.84;100341.25;2075075;28;840;-58
2021/10/16 02:05:16;;;;;;;;;;;;;;;20.99;55.92;100349.25;2074615;28;792;-57
2021/10/16 02:06:16;;;;;;;;;;;;;;;20.99;55.51;100351.06;2076432;28;1240;-58
2021/10/16 02:07:16;;;;;;;;;;;;;;;20.97;56.03;100356.50;2083167;28;774;-57
2021/10/16 02:08:16;;;;;;;;;;;;;;;20.98;56.53;100357.41;2083047;28;840;-57
2021/10/16 02:09:17;;;;;;;;;;;;;;;20.98;56.63;100360.09;2082969;28;1298;-57
2021/10/16 02:10:17;;;;;;;;;;;;;;;20.99;56.31;100360.00;2082887;28;850;-57
2021/10/16 02:11:17;;;;;;;;;;;;;;;20.98;55.88;100363.63;2083054;28;1378;-58
2021/10/16 02:12:17;;;;;;;;;;;;;;;20.98;56.01;100360.94;2083080;28;1028;-57
2021/10/16 02:13:17;;;;;;;;;;;;;;;20.98;56.32;100352.00;2083290;28;737;-57
2021/10/16 02:14:18;;;;;;;;;;;;;;;20.97;55.66;100347.56;2083142;28;1207;-57
2021/10/16 02:15:18;;;;;;;;;;;;;;;20.96;56.56;100346.69;2083085;28;989;-57
2021/10/16 02:16:18;;;;;;;;;;;;;;;20.96;55.96;100341.28;2082986;28;1029;-58
2021/10/16 02:17:18;;;;;;;;;;;;;;;20.95;56.34;100341.38;2083857;28;879;-57
2021/10/16 02:18:18;;;;;;;;;;;;;;;20.96;56.18;100338.59;2084735;28;878;-57
2021/10/16 02:19:19;;;;;;;;;;;;;;;20.96;56.18;100335.03;2084740;28;1914;-57
2021/10/16 02:20:19;;;;;;;;;;;;;;;20.98;56.87;100341.25;2084718;28;804;-58
2021/10/16 02:21:20;;;;;;;;;;;;;;;20.94;56.64;100337.78;2084431;28;859;-57
2021/10/16 02:22:20;;;;;;;;;;;;;;;20.94;56.66;100345.00;2084806;28;827;-58
2021/10/16 02:23:20;;;;;;;;;;;;;;;20.96;56.53;100343.97;2084837;28;784;-57
2021/10/16 02:24:20;;;;;;;;;;;;;;;20.95;56.92;100346.75;2084712;28;864;-58
2021/10/16 02:25:20;;;;;;;;;;;;;;;20.97;56.85;100352.94;2084739;28;1040;-57
2021/10/16 02:26:20;;;;;;;;;;;;;;;20.96;56.13;100341.28;2084411;28;855;-57
2021/10/16 02:27:21;;;;;;;;;;;;;;;20.96;56.06;100345.81;2084704;28;780;-57
2021/10/16 02:28:21;;;;;;;;;;;;;;;20.96;56.32;100337.75;2075951;28;907;-58
2021/10/16 02:29:21;;;;;;;;;;;;;;;20.91;56.86;100339.75;2075947;28;977;-58
2021/10/16 02:30:21;;;;;;;;;;;;;;;20.95;56.50;100346.75;2084631;28;994;-57
2021/10/16 02:31:21;;;;;;;;;;;;;;;20.97;56.50;100342.19;2084706;28;1028;-57
2021/10/16 02:32:21;;;;;;;;;;;;;;;20.96;56.67;100343.13;2084697;28;774;-57
2021/10/16 02:33:22;;;;;;;;;;;;;;;20.98;56.47;100346.63;2084701;28;1104;-58
2021/10/16 02:34:22;;;;;;;;;;;;;;;20.96;56.13;100341.28;2084654;28;985;-57
2021/10/16 02:35:22;;;;;;;;;;;;;;;20.95;56.85;100355.69;2084657;28;962;-58
2021/10/16 02:36:22;;;;;;;;;;;;;;;20.93;56.81;100344.13;2084658;28;836;-57
2021/10/16 02:37:22;;;;;;;;;;;;;;;20.94;56.42;100350.38;2084335;28;1391;-57
2021/10/16 02:38:22;;;;;;;;;;;;;;;20.98;56.50;100347.50;2084743;28;902;-58
2021/10/16 02:39:23;;;;;;;;;;;;;;;20.98;56.91;100346.63;2084528;28;1890;-57
2021/10/16 02:40:23;;;;;;;;;;;;;;;20.93;57.10;100351.31;2084414;28;1085;-58
2021/10/16 02:41:23;;;;;;;;;;;;;;;20.93;56.60;100356.72;2084660;28;804;-57
2021/10/16 02:42:23;;;;;;;;;;;;;;;20.96;56.05;100353.91;2084602;28;941;-57
2021/10/16 02:43:23;;;;;;;;;;;;;;;20.94;56.27;100353.09;2084609;28;831;-58
2021/10/16 02:44:24;;;;;;;;;;;;;;;20.96;56.81;100367.34;2084599;28;832;-57
2021/10/16 02:45:24;;;;;;;;;;;;;;;20.95;57.05;100368.28;2084469;28;815;-58
2021/10/16 02:46:24;;;;;;;;;;;;;;;20.93;56.73;100357.56;2084572;28;906;-58
2021/10/16 02:47:27;;;;;;;;;;;;;;;20.93;57.00;100362.09;2084565;28;1028;-57
2021/10/16 02:48:27;;;;;;;;;;;;;;;20.94;56.73;100362.03;2084259;28;804;-57
2021/10/16 02:49:27;;;;;;;;;;;;;;;20.95;56.18;100347.63;2084552;28;1041;-58
2021/10/16 02:50:27;;;;;;;;;;;;;;;20.94;56.56;100353.09;2084542;28;1041;-57
2021/10/16 02:51:27;;;;;;;;;;;;;;;20.97;55.88;100356.50;2084319;28;1181;-58
2021/10/16 02:52:27;;;;;;;;;;;;;;;20.96;56.55;100348.50;2084527;28;922;-57
2021/10/16 02:53:28;;;;;;;;;;;;;;;20.96;56.58;100354.75;2084560;28;965;-57
2021/10/16 02:54:28;;;;;;;;;;;;;;;20.96;56.43;100356.59;2084296;28;819;-58
2021/10/16 02:55:28;;;;;;;;;;;;;;;20.96;56.78;100359.28;2084543;28;1018;-57
2021/10/16 02:56:28;;;;;;;;;;;;;;;20.94;56.67;100350.38;2084533;28;863;-58
2021/10/16 02:57:28;;;;;;;;;;;;;;;20.93;56.72;100360.25;2084415;28;899;-57
2021/10/16 02:58:28;;;;;;;;;;;;;;;20.99;54.97;100359.16;2084519;28;967;-57
2021/10/16 02:59:29;;;;;;;;;;;;;;;20.95;56.45;100357.53;2084304;28;1889;-57
2021/10/16 03:00:29;;;;;;;;;;;;;;;20.93;56.40;100364.78;2084275;28;859;-57
2021/10/16 03:01:29;;;;;;;;;;;;;;;20.97;55.77;100361.03;2084467;28;819;-58
2021/10/16 03:02:29;;;;;;;;;;;;;;;20.96;55.47;100353.91;2084422;28;1205;-57
2021/10/16 03:03:29;;;;;;;;;;;;;;;20.93;56.15;100362.97;2084206;28;808;-57
2021/10/16 03:04:29;;;;;;;;;;;;;;;20.95;56.47;100357.53;2084411;28;978;-58
2021/10/16 03:05:30;;;;;;;;;;;;;;;20.95;55.96;100349.44;2084491;28;855;-57
2021/10/16 03:06:30;;;;;;;;;;;;;;;20.95;56.15;100352.16;2084495;28;977;-57
2021/10/16 03:07:30;;;;;;;;;;;;;;;20.96;56.50;100341.28;2084455;28;852;-57
2021/10/16 03:08:30;;;;;;;;;;;;;;;20.97;56.21;100334.97;2084208;28;926;-58
2021/10/16 03:09:30;;;;;;;;;;;;;;;20.95;56.73;100341.38;2084029;28;1071;-58
2021/10/16 03:10:30;;;;;;;;;;;;;;;20.96;55.68;100346.69;2083869;28;1220;-58
2021/10/16 03:11:31;;;;;;;;;;;;;;;20.93;56.04;100333.34;2083545;28;772;-57
2021/10/16 03:12:31;;;;;;;;;;;;;;;20.97;56.02;100345.72;2083942;28;974;-58
2021/10/16 03:13:33;;;;;;;;;;;;;;;20.95;56.14;100341.38;2083935;28;768;-57
2021/10/16 03:14:33;;;;;;;;;;;;;;;20.96;55.67;100335.03;2083892;28;838;-57
2021/10/16 03:15:33;;;;;;;;;;;;;;;20.93;56.37;100344.13;2083920;28;1214;-57
2021/10/16 03:16:33;;;;;;;;;;;;;;;20.94;56.80;100334.22;2083837;28;997;-57
2021/10/16 03:17:33;;;;;;;;;;;;;;;20.93;57.13;100335.19;2083988;28;784;-57
2021/10/16 03:18:33;;;;;;;;;;;;;;;20.93;56.27;100335.19;2083790;28;927;-57
2021/10/16 03:19:33;;;;;;;;;;;;;;;20.94;56.29;100345.88;2083715;28;1906;-57
2021/10/16 03:20:34;;;;;;;;;;;;;;;20.97;56.08;100342.19;2083851;28;982;-58
2021/10/16 03:21:34;;;;;;;;;;;;;;;20.94;55.90;100345.88;2083782;28;791;-56
2021/10/16 03:22:34;;;;;;;;;;;;;;;20.98;55.89;100341.25;2083545;28;1495;-58
2021/10/16 03:23:34;;;;;;;;;;;;;;;20.93;55.72;100343.25;2083898;28;1207;-57
2021/10/16 03:24:35;;;;;;;;;;;;;;;20.92;55.80;100342.34;2083865;28;874;-57
2021/10/16 03:25:35;;;;;;;;;;;;;;;20.95;55.99;100346.75;2075145;28;792;-58
2021/10/16 03:26:36;;;;;;;;;;;;;;;20.95;56.60;100341.38;2075131;28;973;-57
2021/10/16 03:27:36;;;;;;;;;;;;;;;20.93;55.84;100344.13;2083667;28;795;-57
2021/10/16 03:28:36;;;;;;;;;;;;;;;20.94;55.14;100337.78;2083463;28;787;-58
2021/10/16 03:29:36;;;;;;;;;;;;;;;20.95;55.59;100344.06;2083804;28;859;-57
2021/10/16 03:30:37;;;;;;;;;;;;;;;20.98;55.81;100338.53;2083779;28;973;-57
2021/10/16 03:31:38;;;;;;;;;;;;;;;20.96;55.81;100338.59;2075067;28;753;-57
2021/10/16 03:32:39;;;;;;;;;;;;;;;20.95;56.34;100342.22;2075082;28;917;-57
2021/10/16 03:33:39;;;;;;;;;;;;;;;20.95;56.03;100344.06;2083728;28;776;-58
2021/10/16 03:34:39;;;;;;;;;;;;;;;20.96;56.13;100345.81;2083611;28;993;-58
2021/10/16 03:35:39;;;;;;;;;;;;;;;20.96;56.43;100340.44;2083703;28;1040;-57
2021/10/16 03:36:39;;;;;;;;;;;;;;;20.97;55.96;100348.44;2083768;28;1052;-58
2021/10/16 03:37:39;;;;;;;;;;;;;;;20.96;55.90;100345.81;2083483;28;1616;-57
2021/10/16 03:38:39;;;;;;;;;;;;;;;20.96;55.99;100343.13;2083576;28;1037;-58
2021/10/16 03:39:40;;;;;;;;;;;;;;;20.97;56.10;100339.50;2083676;28;1882;-57
2021/10/16 03:40:40;;;;;;;;;;;;;;;20.97;56.00;100350.25;2083742;28;898;-57
2021/10/16 03:41:40;;;;;;;;;;;;;;;20.97;56.64;100351.13;2083746;28;776;-58
2021/10/16 03:42:40;;;;;;;;;;;;;;;20.97;56.46;100345.72;2083677;28;993;-58
2021/10/16 03:43:40;;;;;;;;;;;;;;;20.98;56.05;100341.25;2083386;28;1393;-57
2021/10/16 03:44:40;;;;;;;;;;;;;;;20.98;55.19;100347.50;2083752;28;896;-57
2021/10/16 03:45:40;;;;;;;;;;;;;;;20.96;56.14;100349.38;2083697;28;752;-57
2021/10/16 03:46:41;;;;;;;;;;;;;;;20.97;56.39;100350.25;2083382;28;887;-58
2021/10/16 03:47:41;;;;;;;;;;;;;;;20.97;55.87;100352.94;2083762;28;850;-57
2021/10/16 03:48:41;;;;;;;;;;;;;;;20.98;56.10;100349.31;2083692;28;989;-57
2021/10/16 03:49:42;;;;;;;;;;;;;;;20.98;55.79;100352.00;2083380;28;919;-57
2021/10/16 03:50:42;;;;;;;;;;;;;;;20.98;55.29;100349.31;2083621;28;922;-57
2021/10/16 03:51:42;;;;;;;;;;;;;;;20.95;56.00;100349.44;2083810;28;676;-58
2021/10/16 03:52:43;;;;;;;;;;;;;;;20.96;55.41;100343.13;2083383;28;768;-57
2021/10/16 03:53:43;;;;;;;;;;;;;;;20.94;56.07;100345.00;2083677;28;784;-57
2021/10/16 03:54:43;;;;;;;;;;;;;;;20.97;56.62;100345.72;2083581;28;962;-57
2021/10/16 03:55:43;;;;;;;;;;;;;;;20.97;55.70;100339.50;2083410;28;906;-58
2021/10/16 03:56:43;;;;;;;;;;;;;;;20.99;55.92;100343.00;2083661;28;800;-58
2021/10/16 03:57:43;;;;;;;;;;;;;;;20.98;55.59;100335.84;2083571;28;844;-57
2021/10/16 03:58:44;;;;;;;;;;;;;;;20.99;55.40;100338.47;2083606;28;1021;-57
2021/10/16 03:59:44;;;;;;;;;;;;;;;21.01;56.38;100333.03;2083539;28;1947;-57
2021/10/16 04:00:44;;;;;;;;;;;;;;;20.96;55.41;100335.03;2083449;28;780;-57
2021/10/16 04:01:44;;;;;;;;;;;;;;;20.97;55.74;100337.66;2083612;28;768;-58
2021/10/16 04:02:47;;;;;;;;;;;;;;;20.98;55.52;100335.84;2083567;28;1037;-57
2021/10/16 04:03:47;;;;;;;;;;;;;;;21.28;54.21;100336.34;2083309;28;800;-57
2021/10/16 04:04:47;;;;;;;;;;;;;;;21.77;53.65;100317.09;2083587;28;965;-58
2021/10/16 04:05:47;;;;;;;;;;;;;;;21.94;52.50;100318.09;2083562;28;831;-57
2021/10/16 04:06:47;;;;;;;;;;;;;;;22.08;52.52;100321.97;2083213;28;906;-57
2021/10/16 04:07:47;;;;;;;;;;;;;;;22.18;52.22;100318.75;2083534;28;1339;-57
2021/10/16 04:08:47;;;;;;;;;;;;;;;22.33;51.93;100327.06;2083620;28;1026;-58
2021/10/16 04:09:48;;;;;;;;;;;;;;;22.37;51.74;100317.84;2046324;28;1074513;-58
2021/10/16 04:10:48;;;;;;;;;;;;;;;22.44;51.44;100326.53;2083942;28;1009;-57
2021/10/16 04:11:48;;;;;;;;;;;;;;;22.52;51.41;100320.78;2083660;28;1351;-58
2021/10/16 04:12:48;;;;;;;;;;;;;;;22.57;50.54;100319.59;2083901;28;770;-58
2021/10/16 04:13:48;;;;;;;;;;;;;;;22.61;50.42;100323.03;2083934;28;1045;-57
2021/10/16 04:14:49;;;;;;;;;;;;;;;22.71;49.73;100318.03;2083794;28;1159;-58
2021/10/16 04:15:49;;;;;;;;;;;;;;;22.74;50.27;100315.19;2083671;28;795;-57
2021/10/16 04:16:49;;;;;;;;;;;;;;;22.78;50.54;100312.22;2083846;28;878;-57
2021/10/16 04:17:49;;;;;;;;;;;;;;;22.83;50.11;100314.72;2083980;28;1428;-58
2021/10/16 04:18:49;;;;;;;;;;;;;;;22.93;49.38;100316.00;2083906;28;799;-57
2021/10/16 04:19:50;;;;;;;;;;;;;;;22.85;49.83;100318.22;2083823;28;1906;-57
2021/10/16 04:20:50;;;;;;;;;;;;;;;22.90;50.18;100315.25;2083909;28;789;-58
2021/10/16 04:21:50;;;;;;;;;;;;;;;22.88;50.61;100315.34;2083802;28;863;-57
2021/10/16 04:22:50;;;;;;;;;;;;;;;22.92;49.90;100318.75;2083828;28;958;-58
2021/10/16 04:23:50;;;;;;;;;;;;;;;23.02;49.40;100316.44;2083819;28;982;-57
2021/10/16 04:24:51;;;;;;;;;;;;;;;23.05;49.45;100314.47;2083873;28;872;-57
2021/10/16 04:25:51;;;;;;;;;;;;;;;23.02;49.62;100324.53;2083570;28;1040;-58
2021/10/16 04:26:52;;;;;;;;;;;;;;;23.12;48.90;100319.56;2083743;28;670;-58
2021/10/16 04:27:52;;;;;;;;;;;;;;;23.07;49.67;100319.78;2083810;28;863;-57
2021/10/16 04:28:52;;;;;;;;;;;;;;;23.05;49.75;100324.38;2083818;28;1025;-58
2021/10/16 04:29:52;;;;;;;;;;;;;;;23.07;50.03;100317.06;2083822;28;1034;-57
2021/10/16 04:30:52;;;;;;;;;;;;;;;23.11;49.55;100313.25;2083771;28;824;-58
2021/10/16 04:31:52;;;;;;;;;;;;;;;23.07;50.23;100315.25;2083645;28;903;-58
2021/10/16 04:32:53;;;;;;;;;;;;;;;23.11;49.78;100324.06;2083765;28;978;-57
2021/10/16 04:33:53;;;;;;;;;;;;;;;23.13;49.24;100316.75;2083716;28;760;-58
2021/10/16 04:34:53;;;;;;;;;;;;;;;23.08;49.59;100318.81;2083625;28;986;-58
2021/10/16 04:35:53;;;;;;;;;;;;;;;23.17;49.24;100312.94;2083799;28;1064;-57
2021/10/16 04:36:53;;;;;;;;;;;;;;;23.15;49.85;100305.88;2083626;28;1013;-58
2021/10/16 04:37:53;;;;;;;;;;;;;;;23.16;49.53;100310.34;2083580;28;744;-58
2021/10/16 04:38:55;;;;;;;;;;;;;;;23.13;49.75;100310.50;2083714;28;835;-57
2021/10/16 04:39:55;;;;;;;;;;;;;;;23.15;49.30;100309.44;2082751;28;882;-58
2021/10/16 04:40:55;;;;;;;;;;;;;;;23.17;49.68;100312.09;2083627;28;827;-57
2021/10/16 04:41:55;;;;;;;;;;;;;;;23.15;49.75;100314.84;2083713;28;852;-57
2021/10/16 04:42:56;;;;;;;;;;;;;;;23.24;48.84;100308.13;2083484;28;1079;-58
2021/10/16 04:43:56;;;;;;;;;;;;;;;23.13;49.72;100314.06;2083633;28;808;-57
2021/10/16 04:44:56;;;;;;;;;;;;;;;23.16;50.01;100316.59;2083647;28;1167;-58
2021/10/16 04:45:56;;;;;;;;;;;;;;;23.21;49.48;100310.97;2083407;28;773;-57
2021/10/16 04:46:56;;;;;;;;;;;;;;;23.21;49.81;100313.69;2083569;28;962;-58
2021/10/16 04:47:57;;;;;;;;;;;;;;;23.18;49.31;100312.00;2083633;28;831;-58
2021/10/16 04:48:57;;;;;;;;;;;;;;;23.15;49.21;100308.59;2083687;28;981;-57
2021/10/16 04:49:58;;;;;;;;;;;;;;;23.14;49.81;100310.41;2083631;28;925;-57
2021/10/16 04:50:58;;;;;;;;;;;;;;;23.21;49.95;100306.44;2083615;28;932;-58
2021/10/16 04:51:58;;;;;;;;;;;;;;;23.21;49.45;100301.03;2083330;28;903;-57
2021/10/16 04:52:58;;;;;;;;;;;;;;;23.23;49.27;100295.59;2083668;28;768;-58
2021/10/16 04:53:58;;;;;;;;;;;;;;;23.22;49.50;100294.69;2083607;28;970;-57
2021/10/16 04:54:59;;;;;;;;;;;;;;;23.18;50.00;100286.81;2083371;28;695;-57
2021/10/16 04:55:59;;;;;;;;;;;;;;;23.29;49.47;100289.81;2083608;28;953;-58
2021/10/16 04:56:59;;;;;;;;;;;;;;;23.21;50.00;100284.81;2083569;28;860;-57
2021/10/16 04:58:00;;;;;;;;;;;;;;;23.20;49.56;100291.16;2083516;28;788;-57
2021/10/16 04:59:00;;;;;;;;;;;;;;;23.30;49.35;100288.00;2083523;28;1898;-58
2021/10/16 05:00:00;;;;;;;;;;;;;;;23.21;49.40;100282.09;2083356;28;828;-57
2021/10/16 05:01:00;;;;;;;;;;;;;;;23.24;49.31;100292.78;2083361;28;1329;-59
2021/10/16 05:02:02;;;;;;;;;;;;;;;23.25;49.88;100290.97;2074763;28;982;-57
2021/10/16 05:03:02;;;;;;;;;;;;;;;23.23;49.55;100287.47;2074926;28;855;-57
2021/10/16 05:04:02;;;;;;;;;;;;;;;23.21;49.37;100287.50;2083557;28;794;-57
2021/10/16 05:05:02;;;;;;;;;;;;;;;23.21;50.08;100290.22;2083652;28;845;-58
2021/10/16 05:06:03;;;;;;;;;;;;;;;23.28;49.57;100287.22;2083438;28;1188;-58
2021/10/16 05:07:03;;;;;;;;;;;;;;;23.26;50.18;100287.28;2083557;28;764;-58
2021/10/16 05:08:04;;;;;;;;;;;;;;;23.19;49.95;100283.16;2083416;28;790;-57
2021/10/16 05:09:04;;;;;;;;;;;;;;;23.18;50.43;100284.13;2083500;28;835;-58
2021/10/16 05:10:04;;;;;;;;;;;;;;;23.18;50.00;100287.66;2083420;28;1270;-58
2021/10/16 05:11:04;;;;;;;;;;;;;;;23.22;50.25;100286.59;2083080;28;1172;-57
2021/10/16 05:12:05;;;;;;;;;;;;;;;23.29;49.66;100284.41;2083496;28;1020;-57
2021/10/16 05:13:05;;;;;;;;;;;;;;;23.19;50.09;100277.75;2083540;28;1016;-57
2021/10/16 05:14:06;;;;;;;;;;;;;;;23.25;49.52;100277.47;2083473;28;784;-58
2021/10/16 05:15:07;;;;;;;;;;;;;;;23.19;50.09;100275.91;2083467;28;843;-57
2021/10/16 05:16:07;;;;;;;;;;;;;;;23.23;49.64;100280.22;2083273;28;981;-57
2021/10/16 05:17:07;;;;;;;;;;;;;;;23.28;49.88;100276.41;2083437;28;771;-57
2021/10/16 05:18:07;;;;;;;;;;;;;;;23.27;49.91;100285.47;2083445;28;777;-58